createdAt,value
2017-08-24T00:01:00.898Z,8.80
2017-08-24T00:03:28.608Z,8.80
2017-08-24T00:05:56.189Z,8.80
2017-08-24T00:08:23.710Z,8.80
2017-08-24T00:10:51.298Z,8.80
2017-08-24T00:13:18.858Z,8.80
2017-08-24T00:15:46.433Z,8.80
2017-08-24T00:18:14.010Z,8.80
2017-08-24T00:20:41.570Z,8.80
2017-08-24T00:23:09.111Z,8.70
2017-08-24T00:25:36.680Z,8.70
2017-08-24T00:28:04.240Z,8.70
2017-08-24T00:30:31.706Z,8.60
2017-08-24T00:32:59.465Z,8.60
2017-08-24T00:35:27.005Z,8.60
2017-08-24T00:37:54.580Z,8.60
2017-08-24T00:40:22.192Z,8.60
2017-08-24T00:42:49.764Z,8.60
2017-08-24T00:45:17.254Z,8.60
2017-08-24T00:47:44.830Z,8.60
2017-08-24T00:50:12.419Z,8.60
2017-08-24T00:52:39.966Z,8.60
2017-08-24T00:55:07.754Z,8.60
2017-08-24T00:57:35.299Z,8.60
2017-08-24T01:00:02.825Z,8.60
2017-08-24T01:02:30.416Z,8.60
2017-08-24T01:04:57.901Z,8.60
2017-08-24T01:07:25.419Z,8.60
2017-08-24T01:09:53.163Z,8.60
2017-08-24T01:12:20.708Z,8.60
2017-08-24T01:14:48.215Z,8.60
2017-08-24T01:17:15.960Z,8.60
2017-08-24T01:19:43.489Z,8.60
2017-08-24T01:22:11.035Z,8.60
2017-08-24T01:24:38.770Z,8.70
2017-08-24T01:27:06.328Z,8.60
2017-08-24T01:29:33.911Z,8.70
2017-08-24T01:32:01.517Z,8.70
2017-08-24T01:34:29.020Z,8.70
2017-08-24T01:36:56.604Z,8.70
2017-08-24T01:39:24.198Z,8.70
2017-08-24T01:41:51.716Z,8.70
2017-08-24T01:44:19.272Z,8.70
2017-08-24T01:46:47.000Z,8.70
2017-08-24T01:49:15.406Z,8.70
2017-08-24T01:51:42.913Z,8.60
2017-08-24T01:54:10.556Z,8.60
2017-08-24T01:56:38.098Z,8.60
2017-08-24T01:59:05.648Z,8.60
2017-08-24T02:01:33.269Z,8.60
2017-08-24T02:04:00.782Z,8.50
2017-08-24T02:06:28.336Z,8.50
2017-08-24T02:08:55.945Z,8.50
2017-08-24T02:11:23.499Z,8.50
2017-08-24T02:13:51.014Z,8.50
2017-08-24T02:16:18.626Z,8.50
2017-08-24T02:18:46.225Z,8.50
2017-08-24T02:21:13.814Z,8.50
2017-08-24T02:23:41.391Z,8.50
2017-08-24T02:26:08.942Z,8.50
2017-08-24T02:28:36.509Z,8.60
2017-08-24T02:31:04.117Z,8.60
2017-08-24T02:33:31.617Z,8.60
2017-08-24T02:35:59.170Z,8.60
2017-08-24T02:38:26.752Z,8.60
2017-08-24T02:40:54.820Z,8.60
2017-08-24T02:43:22.396Z,8.60
2017-08-24T02:45:49.979Z,8.60
2017-08-24T02:48:17.498Z,8.60
2017-08-24T02:50:45.051Z,8.60
2017-08-24T02:53:12.612Z,8.60
2017-08-24T02:55:40.162Z,8.60
2017-08-24T02:58:07.707Z,8.60
2017-08-24T03:00:35.338Z,8.60
2017-08-24T03:03:02.901Z,8.60
2017-08-24T03:05:30.460Z,8.60
2017-08-24T03:07:58.015Z,8.60
2017-08-24T03:10:25.521Z,8.60
2017-08-24T03:12:53.074Z,8.60
2017-08-24T03:15:20.664Z,8.70
2017-08-24T03:17:48.177Z,8.70
2017-08-24T03:20:15.719Z,8.70
2017-08-24T03:22:43.448Z,8.70
2017-08-24T03:25:10.962Z,8.70
2017-08-24T03:27:38.507Z,8.70
2017-08-24T03:30:06.134Z,8.70
2017-08-24T03:32:33.682Z,8.70
2017-08-24T03:35:01.179Z,8.70
2017-08-24T03:37:28.748Z,8.70
2017-08-24T03:39:56.286Z,8.70
2017-08-24T03:42:23.809Z,8.70
2017-08-24T03:44:51.460Z,8.70
2017-08-24T03:47:18.973Z,8.70
2017-08-24T03:49:46.531Z,8.70
2017-08-24T03:52:14.814Z,8.80
2017-08-24T03:54:43.089Z,8.80
2017-08-24T03:57:10.816Z,8.80
2017-08-24T03:59:38.559Z,8.90
2017-08-24T04:02:06.109Z,9.00
2017-08-24T04:04:33.706Z,9.10
2017-08-24T04:07:01.265Z,9.10
2017-08-24T04:09:28.819Z,9.20
2017-08-24T04:11:56.394Z,9.30
2017-08-24T04:14:24.097Z,9.30
2017-08-24T04:16:51.632Z,9.40
2017-08-24T04:19:19.183Z,9.50
2017-08-24T04:21:46.901Z,9.60
2017-08-24T04:24:14.524Z,9.70
2017-08-24T04:26:42.097Z,9.90
2017-08-24T04:29:09.830Z,10.30
2017-08-24T04:31:37.385Z,10.70
2017-08-24T04:34:04.909Z,11.20
2017-08-24T04:36:33.175Z,11.60
2017-08-24T04:39:00.723Z,11.80
2017-08-24T04:41:28.279Z,12.20
2017-08-24T04:43:56.043Z,12.90
2017-08-24T04:46:23.640Z,13.50
2017-08-24T04:48:51.203Z,13.80
2017-08-24T04:51:18.772Z,14.20
2017-08-24T04:53:46.338Z,14.40
2017-08-24T04:56:13.862Z,14.70
2017-08-24T04:58:41.380Z,15.10
2017-08-24T05:01:08.965Z,15.90
2017-08-24T05:03:36.463Z,16.80
2017-08-24T05:06:04.056Z,17.20
2017-08-24T05:08:31.616Z,17.10
2017-08-24T05:11:00.086Z,16.90
2017-08-24T05:13:27.703Z,16.60
2017-08-24T05:15:55.278Z,16.00
2017-08-24T05:18:22.824Z,15.50
2017-08-24T05:20:50.525Z,15.20
2017-08-24T05:23:18.068Z,15.30
2017-08-24T05:25:45.573Z,16.10
2017-08-24T05:28:13.325Z,17.10
2017-08-24T05:30:40.874Z,18.70
2017-08-24T05:33:08.431Z,19.10
2017-08-24T05:35:36.162Z,19.30
2017-08-24T05:38:03.692Z,20.10
2017-08-24T05:40:31.243Z,20.50
2017-08-24T05:42:58.832Z,20.90
2017-08-24T05:45:26.377Z,21.30
2017-08-24T05:47:53.909Z,21.00
2017-08-24T05:50:21.556Z,21.50
2017-08-24T05:52:49.129Z,22.00
2017-08-24T05:55:16.676Z,23.30
2017-08-24T05:57:44.418Z,24.00
2017-08-24T06:00:11.973Z,25.20
2017-08-24T06:02:39.516Z,25.50
2017-08-24T06:05:07.094Z,25.00
2017-08-24T06:07:34.659Z,24.80
2017-08-24T06:10:02.191Z,24.80
2017-08-24T06:12:29.744Z,24.80
2017-08-24T06:14:57.301Z,23.90
2017-08-24T06:17:24.847Z,23.10
2017-08-24T06:19:52.527Z,22.00
2017-08-24T06:22:20.120Z,21.20
2017-08-24T06:24:47.689Z,20.60
2017-08-24T06:27:15.266Z,20.30
2017-08-24T06:29:42.781Z,20.20
2017-08-24T06:32:10.371Z,20.80
2017-08-24T06:34:38.055Z,21.00
2017-08-24T06:37:05.771Z,21.40
2017-08-24T06:39:33.312Z,21.80
2017-08-24T06:42:00.866Z,22.90
2017-08-24T06:44:28.424Z,24.50
2017-08-24T06:46:55.985Z,26.00
2017-08-24T06:49:23.556Z,26.40
2017-08-24T06:51:51.087Z,27.00
2017-08-24T06:54:18.592Z,27.90
2017-08-24T06:56:46.154Z,28.20
2017-08-24T06:59:14.525Z,28.50
2017-08-24T07:01:42.070Z,29.40
2017-08-24T07:04:09.596Z,29.30
2017-08-24T07:06:37.160Z,30.30
2017-08-24T07:09:04.700Z,31.20
2017-08-24T07:11:32.323Z,31.80
2017-08-24T07:13:59.808Z,31.80
2017-08-24T07:16:28.482Z,31.90
2017-08-24T07:18:56.051Z,31.80
2017-08-24T07:21:23.599Z,31.90
2017-08-24T07:23:51.120Z,31.50
2017-08-24T07:26:18.772Z,31.40
2017-08-24T07:28:46.322Z,31.70
2017-08-24T07:31:13.821Z,31.90
2017-08-24T07:33:41.410Z,32.00
2017-08-24T07:36:08.921Z,32.00
2017-08-24T07:38:36.489Z,32.00
2017-08-24T07:41:04.209Z,32.20
2017-08-24T07:43:31.710Z,31.50
2017-08-24T07:45:59.309Z,31.80
2017-08-24T07:48:26.974Z,31.70
2017-08-24T07:50:54.482Z,32.00
2017-08-24T07:53:22.101Z,32.40
2017-08-24T07:55:49.712Z,32.60
2017-08-24T07:58:17.266Z,32.70
2017-08-24T08:00:44.797Z,32.80
2017-08-24T08:03:12.537Z,32.60
2017-08-24T08:05:40.027Z,33.30
2017-08-24T08:08:07.585Z,32.80
2017-08-24T08:10:35.193Z,32.90
2017-08-24T08:13:02.755Z,33.70
2017-08-24T08:15:30.331Z,33.00
2017-08-24T08:17:57.954Z,32.90
2017-08-24T08:20:25.481Z,33.10
2017-08-24T08:22:53.172Z,33.00
2017-08-24T08:25:42.407Z,33.00
2017-08-24T08:28:10.029Z,32.40
2017-08-24T08:30:37.587Z,32.20
2017-08-24T08:33:05.157Z,32.10
2017-08-24T08:35:32.743Z,32.90
2017-08-24T08:38:00.431Z,33.40
2017-08-24T08:40:28.327Z,33.60
2017-08-24T08:42:55.884Z,33.30
2017-08-24T08:45:23.477Z,33.60
2017-08-24T08:47:51.081Z,33.40
2017-08-24T08:50:18.629Z,32.90
2017-08-24T08:52:46.533Z,33.40
2017-08-24T08:55:14.315Z,33.80
2017-08-24T08:57:41.847Z,33.80
2017-08-24T09:00:09.380Z,34.10
2017-08-24T09:02:36.998Z,34.80
2017-08-24T09:05:04.552Z,34.80
2017-08-24T09:07:32.123Z,34.60
2017-08-24T09:09:59.688Z,34.40
2017-08-24T09:12:27.348Z,33.70
2017-08-24T09:14:54.898Z,32.90
2017-08-24T09:17:22.594Z,32.70
2017-08-24T09:19:50.169Z,32.60
2017-08-24T09:22:17.739Z,32.70
2017-08-24T09:24:46.115Z,32.10
2017-08-24T09:27:13.651Z,32.00
2017-08-24T09:29:41.178Z,32.20
2017-08-24T09:32:25.345Z,32.30
2017-08-24T09:35:10.932Z,32.70
2017-08-24T09:37:38.500Z,32.90
2017-08-24T09:40:06.043Z,33.10
2017-08-24T09:42:33.526Z,33.00
2017-08-24T09:45:01.107Z,33.40
2017-08-24T09:47:29.390Z,33.90
2017-08-24T09:49:56.969Z,34.60
2017-08-24T09:52:25.588Z,34.40
2017-08-24T09:54:53.140Z,34.40
2017-08-24T09:57:20.650Z,34.00
2017-08-24T09:59:48.344Z,34.00
2017-08-24T10:02:16.090Z,33.50
2017-08-24T10:04:43.586Z,32.80
2017-08-24T10:07:11.158Z,32.50
2017-08-24T10:09:38.729Z,32.50
2017-08-24T10:12:06.317Z,32.50
2017-08-24T10:14:33.928Z,31.30
2017-08-24T10:17:01.476Z,31.60
2017-08-24T10:19:29.056Z,31.40
2017-08-24T10:21:56.657Z,31.30
2017-08-24T10:24:24.228Z,30.70
2017-08-24T10:26:52.733Z,30.10
2017-08-24T10:29:20.387Z,29.70
2017-08-24T10:31:48.075Z,30.10
2017-08-24T10:34:15.643Z,29.90
2017-08-24T10:36:43.385Z,29.70
2017-08-24T10:39:10.951Z,29.50
2017-08-24T10:41:38.484Z,28.60
2017-08-24T10:44:06.090Z,28.40
2017-08-24T10:46:33.687Z,28.20
2017-08-24T10:49:01.208Z,28.30
2017-08-24T10:51:28.933Z,28.20
2017-08-24T10:53:56.505Z,28.30
2017-08-24T10:56:24.040Z,28.10
2017-08-24T10:58:51.701Z,27.80
2017-08-24T11:01:19.326Z,27.90
2017-08-24T11:03:46.913Z,27.60
2017-08-24T11:06:14.505Z,27.70
2017-08-24T11:08:42.052Z,27.80
2017-08-24T11:11:09.607Z,27.60
2017-08-24T11:13:37.288Z,27.50
2017-08-24T11:16:04.862Z,27.60
2017-08-24T11:18:32.428Z,27.90
2017-08-24T11:21:00.030Z,28.10
2017-08-24T11:23:27.580Z,28.50
2017-08-24T11:25:55.191Z,29.00
2017-08-24T11:28:22.761Z,29.20
2017-08-24T11:30:50.318Z,29.40
2017-08-24T11:33:17.890Z,28.90
2017-08-24T11:35:45.523Z,28.70
2017-08-24T11:38:13.121Z,28.80
2017-08-24T11:40:40.630Z,28.20
2017-08-24T11:43:08.206Z,28.30
2017-08-24T11:45:35.885Z,28.40
2017-08-24T11:48:03.591Z,28.40
2017-08-24T11:50:31.424Z,28.10
2017-08-24T11:53:00.498Z,27.60
2017-08-24T11:55:28.912Z,26.90
2017-08-24T11:57:57.567Z,26.40
2017-08-24T12:00:25.136Z,26.20
2017-08-24T12:02:52.717Z,26.00
2017-08-24T12:05:20.422Z,25.90
2017-08-24T12:07:48.015Z,25.80
2017-08-24T12:10:15.554Z,25.60
2017-08-24T12:12:43.360Z,25.40
2017-08-24T12:15:10.931Z,25.40
2017-08-24T12:17:38.506Z,25.30
2017-08-24T12:20:06.224Z,25.30
2017-08-24T12:22:33.797Z,25.60
2017-08-24T12:25:01.371Z,25.50
2017-08-24T12:27:29.025Z,25.50
2017-08-24T12:29:56.613Z,25.40
2017-08-24T12:32:24.210Z,25.20
2017-08-24T12:34:51.971Z,25.10
2017-08-24T12:37:19.544Z,25.20
2017-08-24T12:39:47.096Z,25.30
2017-08-24T12:42:14.696Z,25.40
2017-08-24T12:44:42.246Z,25.60
2017-08-24T12:47:09.844Z,25.50
2017-08-24T12:49:37.537Z,25.40
2017-08-24T12:52:05.134Z,25.10
2017-08-24T12:54:32.941Z,25.10
2017-08-24T12:57:00.602Z,25.10
2017-08-24T12:59:28.085Z,25.10
2017-08-24T13:01:55.665Z,25.20
2017-08-24T13:04:23.303Z,25.20
2017-08-24T13:06:50.888Z,25.10
2017-08-24T13:09:18.450Z,25.20
2017-08-24T13:11:46.090Z,25.00
2017-08-24T13:14:13.730Z,24.90
2017-08-24T13:16:42.186Z,24.80
2017-08-24T13:19:09.781Z,24.90
2017-08-24T13:21:37.374Z,25.10
2017-08-24T13:24:04.914Z,25.00
2017-08-24T13:26:33.583Z,25.30
2017-08-24T13:29:01.162Z,25.40
2017-08-24T13:31:29.226Z,25.60
2017-08-24T13:33:56.864Z,25.50
2017-08-24T13:36:24.429Z,25.50
2017-08-24T13:38:52.353Z,25.70
2017-08-24T13:41:20.199Z,25.50
2017-08-24T13:43:47.797Z,25.70
2017-08-24T13:46:15.404Z,25.90
2017-08-24T13:48:42.992Z,25.70
2017-08-24T13:51:10.585Z,25.90
2017-08-24T13:53:38.178Z,26.00
2017-08-24T13:56:05.735Z,26.10
2017-08-24T13:58:33.378Z,26.10
2017-08-24T14:01:01.086Z,26.00
2017-08-24T14:03:28.707Z,25.90
2017-08-24T14:05:56.333Z,26.10
2017-08-24T14:08:23.950Z,26.40
2017-08-24T14:10:51.607Z,26.40
2017-08-24T14:13:19.224Z,26.30
2017-08-24T14:15:46.765Z,26.20
2017-08-24T14:18:15.095Z,26.10
2017-08-24T14:20:42.672Z,25.90
2017-08-24T14:23:10.217Z,25.70
2017-08-24T14:25:37.980Z,25.30
2017-08-24T14:28:05.515Z,25.50
2017-08-24T14:30:33.405Z,25.50
2017-08-24T14:33:00.997Z,25.20
2017-08-24T14:35:28.508Z,25.10
2017-08-24T14:37:56.188Z,25.00
2017-08-24T14:40:24.353Z,24.90
2017-08-24T14:42:51.979Z,24.90
2017-08-24T14:45:19.656Z,24.90
2017-08-24T14:47:48.116Z,25.00
2017-08-24T14:50:15.807Z,25.00
2017-08-24T14:52:43.479Z,25.10
2017-08-24T14:55:11.195Z,25.10
2017-08-24T14:57:38.821Z,25.00
2017-08-24T15:00:06.470Z,24.90
2017-08-24T15:02:34.093Z,25.00
2017-08-24T15:05:01.676Z,25.20
2017-08-24T15:07:29.288Z,25.30
2017-08-24T15:09:57.388Z,25.40
2017-08-24T15:12:26.181Z,25.30
2017-08-24T15:14:53.800Z,25.20
2017-08-24T15:17:21.481Z,25.10
2017-08-24T15:19:49.096Z,24.70
2017-08-24T15:22:16.691Z,24.50
2017-08-24T15:24:44.345Z,24.40
2017-08-24T15:27:11.934Z,24.40
2017-08-24T15:29:39.574Z,24.50
2017-08-24T15:32:07.216Z,24.40
2017-08-24T15:34:34.754Z,24.40
2017-08-24T15:37:02.309Z,24.40
2017-08-24T15:39:29.961Z,24.50
2017-08-24T15:41:57.551Z,24.40
2017-08-24T15:44:25.156Z,24.30
2017-08-24T15:46:52.944Z,24.10
2017-08-24T15:49:20.505Z,24.00
2017-08-24T15:51:48.125Z,23.90
2017-08-24T15:54:15.854Z,23.90
2017-08-24T15:56:43.419Z,23.90
2017-08-24T15:59:10.978Z,23.80
2017-08-24T16:01:38.605Z,23.60
2017-08-24T16:04:06.252Z,23.50
2017-08-24T16:06:33.849Z,23.40
2017-08-24T16:09:01.650Z,23.20
2017-08-24T16:11:29.243Z,23.10
2017-08-24T16:13:56.860Z,23.00
2017-08-24T16:16:24.502Z,22.90
2017-08-24T16:18:52.156Z,22.90
2017-08-24T16:21:19.778Z,22.90
2017-08-24T16:23:47.367Z,22.90
2017-08-24T16:26:14.943Z,22.90
2017-08-24T16:28:44.657Z,23.00
2017-08-24T16:31:12.248Z,23.00
2017-08-24T16:33:40.975Z,23.00
2017-08-24T16:36:08.626Z,23.00
2017-08-24T16:38:36.264Z,22.90
2017-08-24T16:41:03.860Z,22.90
2017-08-24T16:43:31.445Z,22.80
2017-08-24T16:45:59.104Z,22.80
2017-08-24T16:48:26.686Z,22.80
2017-08-24T16:50:54.266Z,22.80
2017-08-24T16:53:22.042Z,22.70
2017-08-24T16:55:49.617Z,22.50
2017-08-24T16:58:17.269Z,22.40
2017-08-24T17:00:45.110Z,22.20
2017-08-24T17:03:12.705Z,22.00
2017-08-24T17:05:41.497Z,21.90
2017-08-24T17:08:09.055Z,21.80
2017-08-24T17:10:36.657Z,21.60
2017-08-24T17:13:04.237Z,21.50
2017-08-24T17:15:31.824Z,21.40
2017-08-24T17:17:59.413Z,21.30
2017-08-24T17:20:26.971Z,21.20
2017-08-24T17:22:54.616Z,21.00
2017-08-24T17:25:22.182Z,21.00
2017-08-24T17:27:49.796Z,20.90
2017-08-24T17:30:17.421Z,20.80
2017-08-24T17:32:46.098Z,20.70
2017-08-24T17:35:13.670Z,20.60
2017-08-24T17:37:41.376Z,20.50
2017-08-24T17:40:08.984Z,20.40
2017-08-24T17:42:36.575Z,20.20
2017-08-24T17:45:05.134Z,20.10
2017-08-24T17:47:32.772Z,19.90
2017-08-24T17:50:00.373Z,19.70
2017-08-24T17:52:27.962Z,19.60
2017-08-24T17:54:55.593Z,19.50
2017-08-24T17:57:23.145Z,19.40
2017-08-24T17:59:50.800Z,19.20
2017-08-24T18:02:18.394Z,19.10
2017-08-24T18:04:46.301Z,19.00
2017-08-24T18:07:13.877Z,18.80
2017-08-24T18:09:41.413Z,18.70
2017-08-24T18:12:09.080Z,18.60
2017-08-24T18:14:36.734Z,18.50
2017-08-24T18:17:05.111Z,18.40
2017-08-24T18:19:33.578Z,18.30
2017-08-24T18:22:01.426Z,18.20
2017-08-24T18:24:29.802Z,18.10
2017-08-24T18:26:58.454Z,18.10
2017-08-24T18:29:27.011Z,18.00
2017-08-24T18:31:54.638Z,18.00
2017-08-24T18:34:22.253Z,18.00
2017-08-24T18:36:49.898Z,17.90
2017-08-24T18:39:17.600Z,17.90
2017-08-24T18:41:45.223Z,18.00
2017-08-24T18:44:12.934Z,18.00
2017-08-24T18:46:40.558Z,18.00
2017-08-24T18:49:08.258Z,17.90
2017-08-24T18:51:36.712Z,17.90
2017-08-24T18:54:04.325Z,17.80
2017-08-24T18:56:31.908Z,17.90
2017-08-24T18:58:59.746Z,17.80
2017-08-24T19:01:27.339Z,17.90
2017-08-24T19:03:54.990Z,17.90
2017-08-24T19:06:22.728Z,17.80
2017-08-24T19:08:50.345Z,17.80
2017-08-24T19:11:17.922Z,17.70
2017-08-24T19:13:45.651Z,17.60
2017-08-24T19:16:14.176Z,17.60
2017-08-24T19:18:42.658Z,17.40
2017-08-24T19:21:10.423Z,17.30
2017-08-24T19:23:39.317Z,17.20
2017-08-24T19:26:07.354Z,17.20
2017-08-24T19:28:35.290Z,17.10
2017-08-24T19:31:02.918Z,17.00
2017-08-24T19:33:31.276Z,17.00
2017-08-24T19:35:59.686Z,16.90
2017-08-24T19:38:27.834Z,16.80
2017-08-24T19:40:55.407Z,16.60
2017-08-24T19:43:23.068Z,16.50
2017-08-24T19:45:51.505Z,16.40
2017-08-24T19:48:19.246Z,16.30
2017-08-24T19:50:47.077Z,16.20
2017-08-24T19:53:14.701Z,16.10
2017-08-24T19:55:42.972Z,16.00
2017-08-24T19:58:10.765Z,15.90
2017-08-24T20:00:38.705Z,15.90
2017-08-24T20:03:07.076Z,15.80
2017-08-24T20:05:34.756Z,15.70
2017-08-24T20:08:02.430Z,15.60
2017-08-24T20:10:31.342Z,15.50
2017-08-24T20:12:59.032Z,15.50
2017-08-24T20:15:26.595Z,15.40
2017-08-24T20:17:54.217Z,15.40
2017-08-24T20:20:22.022Z,15.40
2017-08-24T20:22:49.660Z,15.30
2017-08-24T20:25:17.315Z,15.20
2017-08-24T20:27:45.088Z,15.20
2017-08-24T20:30:12.716Z,15.10
2017-08-24T20:32:40.297Z,15.10
2017-08-24T20:35:08.001Z,15.00
2017-08-24T20:37:35.778Z,15.10
2017-08-24T20:40:03.401Z,15.00
2017-08-24T20:42:31.082Z,15.00
2017-08-24T20:44:58.709Z,15.10
2017-08-24T20:47:26.368Z,15.00
2017-08-24T20:49:54.983Z,15.00
2017-08-24T20:52:22.654Z,15.00
2017-08-24T20:54:50.314Z,15.00
2017-08-24T20:57:17.977Z,15.00
2017-08-24T20:59:45.644Z,14.90
2017-08-24T21:02:13.330Z,14.90
2017-08-24T21:04:40.928Z,14.80
2017-08-24T21:07:08.617Z,14.80
2017-08-24T21:09:36.218Z,14.80
2017-08-24T21:12:03.982Z,14.80
2017-08-24T21:14:31.583Z,14.80
2017-08-24T21:16:59.215Z,14.80
2017-08-24T21:19:26.844Z,14.90
2017-08-24T21:21:54.470Z,14.90
2017-08-24T21:24:22.097Z,14.80
2017-08-24T21:26:49.742Z,14.70
2017-08-24T21:29:17.341Z,14.60
2017-08-24T21:31:44.978Z,14.60
2017-08-24T21:34:12.691Z,14.50
2017-08-24T21:36:40.292Z,14.40
2017-08-24T21:39:07.946Z,14.40
2017-08-24T21:41:35.858Z,14.30
2017-08-24T21:44:03.448Z,14.30
2017-08-24T21:46:31.071Z,14.30
2017-08-24T21:48:58.657Z,14.30
2017-08-24T21:51:26.174Z,14.30
2017-08-24T21:53:53.754Z,14.30
2017-08-24T21:56:21.399Z,14.30
2017-08-24T21:58:48.959Z,14.20
2017-08-24T22:01:16.579Z,14.20
2017-08-24T22:03:44.182Z,14.20
2017-08-24T22:06:11.829Z,14.20
2017-08-24T22:08:39.358Z,14.20
2017-08-24T22:11:06.987Z,14.10
2017-08-24T22:13:34.588Z,14.10
2017-08-24T22:16:03.302Z,14.10
2017-08-24T22:18:30.920Z,14.00
2017-08-24T22:20:58.440Z,14.00
2017-08-24T22:23:26.014Z,14.10
2017-08-24T22:25:53.597Z,14.00
2017-08-24T22:28:21.163Z,14.00
2017-08-24T22:30:48.708Z,14.00
2017-08-24T22:33:16.327Z,13.90
2017-08-24T22:35:43.884Z,13.90
2017-08-24T22:38:11.447Z,13.90
2017-08-24T22:40:39.153Z,13.90
2017-08-24T22:43:06.731Z,13.90
2017-08-24T22:45:34.292Z,13.90
2017-08-24T22:48:01.866Z,14.00
2017-08-24T22:50:29.416Z,14.00
2017-08-24T22:52:56.941Z,14.00
2017-08-24T22:55:30.262Z,14.00
2017-08-24T22:58:03.537Z,14.00
2017-08-24T23:00:36.983Z,13.90
2017-08-24T23:06:09.897Z,14.00
2017-08-24T23:08:37.451Z,14.00
2017-08-24T23:11:04.992Z,14.00
2017-08-24T23:13:32.725Z,13.90
2017-08-24T23:16:00.273Z,13.90
2017-08-24T23:18:27.816Z,13.90
2017-08-24T23:20:55.558Z,13.80
2017-08-24T23:23:23.132Z,13.80
2017-08-24T23:25:50.671Z,13.70
2017-08-24T23:28:18.421Z,13.70
2017-08-24T23:30:46.014Z,13.70
2017-08-24T23:33:13.561Z,13.60
2017-08-24T23:35:41.158Z,13.60
2017-08-24T23:38:08.720Z,13.60
2017-08-24T23:40:36.281Z,13.50
2017-08-24T23:43:03.819Z,13.50
2017-08-24T23:45:31.383Z,13.50
2017-08-24T23:47:58.947Z,13.60
2017-08-24T23:50:26.519Z,13.60
2017-08-24T23:52:54.055Z,13.70
2017-08-24T23:55:21.576Z,13.60
2017-08-24T23:57:49.340Z,13.60
